sensor_id;sensor_type;location;lat;lon;timestamp;pressure;altitude;pressure_sealevel;temperature;humidity
61908;BME280;47864;52.526;19.672;2023-02-13T00:01:08;102667.09;;;4.38;100.00
61908;BME280;47864;52.526;19.672;2023-02-13T00:03:09;102648.13;;;4.30;100.00
61908;BME280;47864;52.526;19.672;2023-02-13T00:05:11;102657.56;;;4.36;100.00
61908;BME280;47864;52.526;19.672;2023-02-13T00:07:12;102664.50;;;4.37;100.00
61908;BME280;47864;52.526;19.672;2023-02-13T00:09:14;102665.25;;;4.40;100.00
61908;BME280;47864;52.526;19.672;2023-02-13T00:11:16;102661.53;;;4.46;100.00
61908;BME280;47864;52.526;19.672;2023-02-13T00:13:17;102655.31;;;4.48;100.00
61908;BME280;47864;52.526;19.672;2023-02-13T00:15:19;102662.22;;;4.51;100.00
61908;BME280;47864;52.526;19.672;2023-02-13T00:17:20;102663.19;;;4.48;100.00
61908;BME280;47864;52.526;19.672;2023-02-13T00:19:22;102661.66;;;4.43;100.00
61908;BME280;47864;52.526;19.672;2023-02-13T00:21:23;102658.69;;;4.52;100.00
61908;BME280;47864;52.526;19.672;2023-02-13T00:23:25;102599.50;;;4.20;100.00
61908;BME280;47864;52.526;19.672;2023-02-13T00:25:26;102649.78;;;4.54;100.00
61908;BME280;47864;52.526;19.672;2023-02-13T00:27:28;102654.13;;;4.55;100.00
61908;BME280;47864;52.526;19.672;2023-02-13T00:29:29;102655.03;;;4.54;100.00
61908;BME280;47864;52.526;19.672;2023-02-13T00:31:31;102649.47;;;4.62;100.00
61908;BME280;47864;52.526;19.672;2023-02-13T00:33:33;102649.03;;;4.52;100.00
61908;BME280;47864;52.526;19.672;2023-02-13T00:35:34;102654.06;;;4.57;100.00
61908;BME280;47864;52.526;19.672;2023-02-13T00:37:36;102655.19;;;4.51;100.00
61908;BME280;47864;52.526;19.672;2023-02-13T00:39:38;102649.47;;;4.62;100.00
61908;BME280;47864;52.526;19.672;2023-02-13T00:41:39;102650.34;;;4.63;100.00
61908;BME280;47864;52.526;19.672;2023-02-13T00:43:41;102649.38;;;4.65;100.00
61908;BME280;47864;52.526;19.672;2023-02-13T00:45:42;102642.53;;;4.61;100.00
61908;BME280;47864;52.526;19.672;2023-02-13T00:47:44;102658.16;;;4.64;100.00
61908;BME280;47864;52.526;19.672;2023-02-13T00:49:45;102650.59;;;4.56;100.00
61908;BME280;47864;52.526;19.672;2023-02-13T00:51:47;102645.44;;;4.53;100.00
61908;BME280;47864;52.526;19.672;2023-02-13T00:53:48;102641.47;;;4.65;100.00
61908;BME280;47864;52.526;19.672;2023-02-13T00:55:50;102638.72;;;4.68;100.00
61908;BME280;47864;52.526;19.672;2023-02-13T00:57:52;102648.41;;;4.68;100.00
61908;BME280;47864;52.526;19.672;2023-02-13T00:59:53;102644.91;;;4.67;100.00
61908;BME280;47864;52.526;19.672;2023-02-13T01:01:55;102653.72;;;4.66;100.00
61908;BME280;47864;52.526;19.672;2023-02-13T01:03:56;102652.03;;;4.64;100.00
61908;BME280;47864;52.526;19.672;2023-02-13T01:05:58;102650.03;;;4.70;100.00
61908;BME280;47864;52.526;19.672;2023-02-13T01:08:00;102652.78;;;4.67;100.00
61908;BME280;47864;52.526;19.672;2023-02-13T01:10:01;102648.13;;;4.74;100.00
61908;BME280;47864;52.526;19.672;2023-02-13T01:12:03;102652.53;;;4.73;100.00
61908;BME280;47864;52.526;19.672;2023-02-13T01:14:04;102642.63;;;4.80;100.00
61908;BME280;47864;52.526;19.672;2023-02-13T01:16:06;102652.41;;;4.76;100.00
61908;BME280;47864;52.526;19.672;2023-02-13T01:18:09;102643.91;;;4.70;100.00
61908;BME280;47864;52.526;19.672;2023-02-13T01:20:13;102646.41;;;4.73;100.00
61908;BME280;47864;52.526;19.672;2023-02-13T01:22:15;102633.59;;;4.65;100.00
61908;BME280;47864;52.526;19.672;2023-02-13T01:24:16;102646.63;;;4.68;100.00
61908;BME280;47864;52.526;19.672;2023-02-13T01:26:21;102645.72;;;4.69;100.00
61908;BME280;47864;52.526;19.672;2023-02-13T01:28:22;102644.84;;;4.69;100.00
61908;BME280;47864;52.526;19.672;2023-02-13T01:30:24;102641.09;;;4.74;100.00
61908;BME280;47864;52.526;19.672;2023-02-13T01:32:26;102637.72;;;4.71;100.00
61908;BME280;47864;52.526;19.672;2023-02-13T01:34:27;102638.84;;;4.65;100.00
61908;BME280;47864;52.526;19.672;2023-02-13T01:36:28;102643.84;;;4.71;100.00
61908;BME280;47864;52.526;19.672;2023-02-13T01:38:30;102636.75;;;4.73;100.00
61908;BME280;47864;52.526;19.672;2023-02-13T01:40:31;102639.59;;;4.69;100.00
61908;BME280;47864;52.526;19.672;2023-02-13T01:42:34;102638.00;;;4.65;100.00
61908;BME280;47864;52.526;19.672;2023-02-13T01:44:52;102637.03;;;4.67;100.00
61908;BME280;47864;52.526;19.672;2023-02-13T01:46:53;102625.50;;;4.70;100.00
61908;BME280;47864;52.526;19.672;2023-02-13T01:48:59;102631.63;;;4.70;100.00
61908;BME280;47864;52.526;19.672;2023-02-13T01:51:04;102633.34;;;4.71;100.00
61908;BME280;47864;52.526;19.672;2023-02-13T01:53:22;102633.22;;;4.74;100.00
61908;BME280;47864;52.526;19.672;2023-02-13T01:55:26;102612.56;;;4.65;100.00
61908;BME280;47864;52.526;19.672;2023-02-13T01:57:30;102625.38;;;4.73;100.00
61908;BME280;47864;52.526;19.672;2023-02-13T01:59:33;102628.94;;;4.72;100.00
61908;BME280;47864;52.526;19.672;2023-02-13T02:01:38;102632.63;;;4.68;100.00
61908;BME280;47864;52.526;19.672;2023-02-13T02:03:47;102636.66;;;4.76;100.00
61908;BME280;47864;52.526;19.672;2023-02-13T02:05:50;102633.22;;;4.74;100.00
61908;BME280;47864;52.526;19.672;2023-02-13T02:07:54;102635.72;;;4.77;100.00
61908;BME280;47864;52.526;19.672;2023-02-13T02:09:59;102628.75;;;4.76;100.00
61908;BME280;47864;52.526;19.672;2023-02-13T02:12:10;102628.38;;;4.85;100.00
61908;BME280;47864;52.526;19.672;2023-02-13T02:14:13;102613.75;;;4.78;100.00
61908;BME280;47864;52.526;19.672;2023-02-13T02:16:15;102617.50;;;4.73;100.00
61908;BME280;47864;52.526;19.672;2023-02-13T02:18:21;102611.81;;;4.62;100.00
61908;BME280;47864;52.526;19.672;2023-02-13T02:22:51;102613.53;;;4.63;100.00
61908;BME280;47864;52.526;19.672;2023-02-13T02:31:56;102630.28;;;4.82;100.00
61908;BME280;47864;52.526;19.672;2023-02-13T02:36:40;102630.28;;;4.82;100.00
61908;BME280;47864;52.526;19.672;2023-02-13T02:41:20;102613.75;;;4.78;100.00
61908;BME280;47864;52.526;19.672;2023-02-13T02:43:54;102615.53;;;4.78;100.00
61908;BME280;47864;52.526;19.672;2023-02-13T02:48:21;102618.84;;;4.83;100.00
61908;BME280;47864;52.526;19.672;2023-02-13T02:50:56;102623.19;;;4.84;100.00
61908;BME280;47864;52.526;19.672;2023-02-13T02:53:22;102632.16;;;4.78;100.00
61908;BME280;47864;52.526;19.672;2023-02-13T02:55:36;102624.41;;;4.75;100.00
61908;BME280;47864;52.526;19.672;2023-02-13T02:57:44;102624.22;;;4.80;100.00
61908;BME280;47864;52.526;19.672;2023-02-13T02:59:47;102639.06;;;4.81;100.00
61908;BME280;47864;52.526;19.672;2023-02-13T03:01:50;102634.72;;;4.80;100.00
61908;BME280;47864;52.526;19.672;2023-02-13T03:03:55;102638.03;;;4.85;100.00
61908;BME280;47864;52.526;19.672;2023-02-13T03:05:59;102639.81;;;4.84;100.00
61908;BME280;47864;52.526;19.672;2023-02-13T03:08:03;102624.16;;;4.81;100.00
61908;BME280;47864;52.526;19.672;2023-02-13T03:10:08;102635.53;;;4.82;100.00
61908;BME280;47864;52.526;19.672;2023-02-13T03:12:12;102630.06;;;4.86;100.00
61908;BME280;47864;52.526;19.672;2023-02-13T03:14:19;102637.28;;;4.81;100.00
61908;BME280;47864;52.526;19.672;2023-02-13T03:16:23;102636.84;;;4.92;100.00
61908;BME280;47864;52.526;19.672;2023-02-13T03:18:28;102642.81;;;4.95;100.00
61908;BME280;47864;52.526;19.672;2023-02-13T03:21:11;102649.94;;;4.93;100.00
61908;BME280;47864;52.526;19.672;2023-02-13T03:23:22;102650.19;;;4.87;100.00
61908;BME280;47864;52.526;19.672;2023-02-13T03:25:30;102654.59;;;4.87;100.00
61908;BME280;47864;52.526;19.672;2023-02-13T03:27:50;102656.28;;;4.88;100.00
61908;BME280;47864;52.526;19.672;2023-02-13T03:30:03;102653.06;;;4.81;100.00
61908;BME280;47864;52.526;19.672;2023-02-13T03:32:19;102653.88;;;4.83;100.00
61908;BME280;47864;52.526;19.672;2023-02-13T03:34:25;102659.72;;;4.90;100.00
61908;BME280;47864;52.526;19.672;2023-02-13T03:38:42;102649.25;;;4.88;100.00
61908;BME280;47864;52.526;19.672;2023-02-13T03:41:14;102653.72;;;4.86;100.00
61908;BME280;47864;52.526;19.672;2023-02-13T03:43:17;102650.34;;;4.84;100.00
61908;BME280;47864;52.526;19.672;2023-02-13T03:45:22;102659.19;;;4.82;100.00
61908;BME280;47864;52.526;19.672;2023-02-13T03:47:27;102654.97;;;4.78;100.00
61908;BME280;47864;52.526;19.672;2023-02-13T03:49:32;102655.59;;;4.84;100.00
61908;BME280;47864;52.526;19.672;2023-02-13T03:51:41;102666.16;;;4.83;100.00
61908;BME280;47864;52.526;19.672;2023-02-13T03:53:46;102661.03;;;4.80;100.00
61908;BME280;47864;52.526;19.672;2023-02-13T03:55:51;102663.91;;;4.74;100.00
61908;BME280;47864;52.526;19.672;2023-02-13T03:57:57;102667.19;;;4.79;100.00
61908;BME280;47864;52.526;19.672;2023-02-13T04:00:03;102666.34;;;4.78;100.00
61908;BME280;47864;52.526;19.672;2023-02-13T04:02:21;102659.41;;;4.77;100.00
61908;BME280;47864;52.526;19.672;2023-02-13T04:05:04;102654.97;;;4.78;100.00
61908;BME280;47864;52.526;19.672;2023-02-13T04:07:14;102651.69;;;4.73;100.00
61908;BME280;47864;52.526;19.672;2023-02-13T04:09:17;102658.59;;;4.75;100.00
61908;BME280;47864;52.526;19.672;2023-02-13T04:11:30;102651.56;;;4.76;100.00
61908;BME280;47864;52.526;19.672;2023-02-13T04:13:38;102647.00;;;4.79;100.00
61908;BME280;47864;52.526;19.672;2023-02-13T04:15:50;102644.53;;;4.76;100.00
61908;BME280;47864;52.526;19.672;2023-02-13T04:18:02;102651.09;;;4.66;100.00
61908;BME280;47864;52.526;19.672;2023-02-13T04:20:06;102644.53;;;4.76;100.00
61908;BME280;47864;52.526;19.672;2023-02-13T04:22:11;102656.81;;;4.76;100.00
61908;BME280;47864;52.526;19.672;2023-02-13T04:24:12;102654.41;;;4.70;100.00
61908;BME280;47864;52.526;19.672;2023-02-13T04:26:17;102646.41;;;4.73;100.00
61908;BME280;47864;52.526;19.672;2023-02-13T04:28:19;102649.97;;;4.72;100.00
61908;BME280;47864;52.526;19.672;2023-02-13T04:30:21;102642.28;;;4.67;100.00
61908;BME280;47864;52.526;19.672;2023-02-13T04:32:22;102649.84;;;4.75;100.00
61908;BME280;47864;52.526;19.672;2023-02-13T04:34:24;102640.69;;;4.63;100.00
61908;BME280;47864;52.526;19.672;2023-02-13T04:36:25;102655.16;;;4.73;100.00
61908;BME280;47864;52.526;19.672;2023-02-13T04:38:27;102652.41;;;4.76;100.00
61908;BME280;47864;52.526;19.672;2023-02-13T04:40:29;102645.31;;;4.78;100.00
61908;BME280;47864;52.526;19.672;2023-02-13T04:42:30;102649.53;;;4.82;100.00
61908;BME280;47864;52.526;19.672;2023-02-13T04:44:32;102648.13;;;4.74;100.00
61908;BME280;47864;52.526;19.672;2023-02-13T04:46:33;102647.28;;;4.73;100.00
61908;BME280;47864;52.526;19.672;2023-02-13T04:48:35;102643.84;;;4.71;100.00
61908;BME280;47864;52.526;19.672;2023-02-13T04:50:39;102656.88;;;4.74;100.00
61908;BME280;47864;52.526;19.672;2023-02-13T04:52:40;102659.88;;;4.65;100.00
61908;BME280;47864;52.526;19.672;2023-02-13T04:54:42;102658.06;;;4.67;100.00
61908;BME280;47864;52.526;19.672;2023-02-13T04:56:43;102649.63;;;4.59;100.00
61908;BME280;47864;52.526;19.672;2023-02-13T04:58:45;102662.03;;;4.77;100.00
61908;BME280;47864;52.526;19.672;2023-02-13T05:00:46;102652.66;;;4.70;100.00
61908;BME280;47864;52.526;19.672;2023-02-13T05:02:48;102653.44;;;4.72;100.00
61908;BME280;47864;52.526;19.672;2023-02-13T05:04:50;102651.50;;;4.77;100.00
61908;BME280;47864;52.526;19.672;2023-02-13T05:06:51;102656.13;;;4.71;100.00
61908;BME280;47864;52.526;19.672;2023-02-13T05:08:53;102658.53;;;4.77;100.00
61908;BME280;47864;52.526;19.672;2023-02-13T05:10:54;102654.25;;;4.74;100.00
61908;BME280;47864;52.526;19.672;2023-02-13T05:12:57;102652.97;;;4.84;100.00
61908;BME280;47864;52.526;19.672;2023-02-13T05:14:58;102663.00;;;4.75;100.00
61908;BME280;47864;52.526;19.672;2023-02-13T05:17:00;102662.69;;;4.82;100.00
61908;BME280;47864;52.526;19.672;2023-02-13T05:19:01;102675.56;;;4.88;100.00
61908;BME280;47864;52.526;19.672;2023-02-13T05:21:03;102677.59;;;4.82;100.00
61908;BME280;47864;52.526;19.672;2023-02-13T05:23:08;102686.44;;;4.79;100.00
61908;BME280;47864;52.526;19.672;2023-02-13T05:25:13;102688.97;;;4.82;100.00
61908;BME280;47864;52.526;19.672;2023-02-13T05:27:15;102685.44;;;4.83;100.00
61908;BME280;47864;52.526;19.672;2023-02-13T05:29:16;102679.56;;;4.77;100.00
61908;BME280;47864;52.526;19.672;2023-02-13T05:31:18;102684.81;;;4.77;100.00
61908;BME280;47864;52.526;19.672;2023-02-13T05:33:20;102683.28;;;4.71;100.00
61908;BME280;47864;52.526;19.672;2023-02-13T05:35:22;102677.91;;;4.74;100.00
61908;BME280;47864;52.526;19.672;2023-02-13T05:37:23;102665.56;;;4.76;100.00
61908;BME280;47864;52.526;19.672;2023-02-13T05:39:25;102674.09;;;4.81;100.00
61908;BME280;47864;52.526;19.672;2023-02-13T05:41:26;102673.19;;;4.82;100.00
61908;BME280;47864;52.526;19.672;2023-02-13T05:43:28;102677.84;;;4.76;100.00
61908;BME280;47864;52.526;19.672;2023-02-13T05:45:30;102677.91;;;4.74;100.00
61908;BME280;47864;52.526;19.672;2023-02-13T05:47:32;102671.91;;;4.71;100.00
61908;BME280;47864;52.526;19.672;2023-02-13T05:49:33;102659.50;;;4.74;100.00
61908;BME280;47864;52.526;19.672;2023-02-13T05:51:35;102675.16;;;4.77;100.00
61908;BME280;47864;52.526;19.672;2023-02-13T05:53:37;102666.53;;;4.74;100.00
61908;BME280;47864;52.526;19.672;2023-02-13T05:55:38;102654.78;;;4.82;100.00
61908;BME280;47864;52.526;19.672;2023-02-13T05:57:40;102662.94;;;4.76;100.00
61908;BME280;47864;52.526;19.672;2023-02-13T05:59:41;102661.03;;;4.80;100.00
61908;BME280;47864;52.526;19.672;2023-02-13T06:01:43;102664.34;;;4.85;100.00
61908;BME280;47864;52.526;19.672;2023-02-13T06:03:45;102650.38;;;4.83;100.00
61908;BME280;47864;52.526;19.672;2023-02-13T06:05:46;102670.44;;;4.85;100.00
61908;BME280;47864;52.526;19.672;2023-02-13T06:07:48;102663.66;;;4.80;100.00
61908;BME280;47864;52.526;19.672;2023-02-13T06:09:49;102668.00;;;4.81;100.00
61908;BME280;47864;52.526;19.672;2023-02-13T06:11:50;102672.06;;;4.88;100.00
61908;BME280;47864;52.526;19.672;2023-02-13T06:13:52;102674.91;;;4.83;100.00
61908;BME280;47864;52.526;19.672;2023-02-13T06:15:54;102672.94;;;4.88;100.00
61908;BME280;47864;52.526;19.672;2023-02-13T06:17:55;102662.34;;;4.90;100.00
61908;BME280;47864;52.526;19.672;2023-02-13T06:19:57;102659.66;;;4.91;100.00
61908;BME280;47864;52.526;19.672;2023-02-13T06:21:58;102658.69;;;4.94;100.00
61908;BME280;47864;52.526;19.672;2023-02-13T06:24:00;102655.00;;;4.98;100.00
61908;BME280;47864;52.526;19.672;2023-02-13T06:26:03;102662.78;;;5.01;100.00
61908;BME280;47864;52.526;19.672;2023-02-13T06:28:06;102655.91;;;4.97;100.00
61908;BME280;47864;52.526;19.672;2023-02-13T06:30:08;102664.22;;;5.08;100.00
61908;BME280;47864;52.526;19.672;2023-02-13T06:32:10;102680.13;;;5.05;100.00
61908;BME280;47864;52.526;19.672;2023-02-13T06:34:11;102676.47;;;5.09;100.00
61908;BME280;47864;52.526;19.672;2023-02-13T06:36:13;102678.28;;;5.07;100.00
61908;BME280;47864;52.526;19.672;2023-02-13T06:38:14;102679.19;;;5.06;100.00
61908;BME280;47864;52.526;19.672;2023-02-13T06:40:16;102678.16;;;5.10;100.00
61908;BME280;47864;52.526;19.672;2023-02-13T06:42:17;102678.94;;;5.12;100.00
61908;BME280;47864;52.526;19.672;2023-02-13T06:44:19;102673.69;;;5.12;100.00
61908;BME280;47864;52.526;19.672;2023-02-13T06:46:20;102676.06;;;5.18;100.00
61908;BME280;47864;52.526;19.672;2023-02-13T06:48:22;102676.78;;;5.22;100.00
61908;BME280;47864;52.526;19.672;2023-02-13T06:50:23;102673.13;;;5.26;100.00
61908;BME280;47864;52.526;19.672;2023-02-13T06:52:25;102679.22;;;5.26;100.00
61908;BME280;47864;52.526;19.672;2023-02-13T06:54:27;102681.19;;;5.21;100.00
61908;BME280;47864;52.526;19.672;2023-02-13T06:56:47;102674.41;;;5.16;100.00
61908;BME280;47864;52.526;19.672;2023-02-13T06:58:48;102681.94;;;5.03;100.00
61908;BME280;47864;52.526;19.672;2023-02-13T07:00:51;102680.66;;;5.13;100.00
61908;BME280;47864;52.526;19.672;2023-02-13T07:02:52;102685.00;;;5.14;100.00
61908;BME280;47864;52.526;19.672;2023-02-13T07:04:54;102686.34;;;5.03;100.00
61908;BME280;47864;52.526;19.672;2023-02-13T07:06:56;102683.50;;;5.09;100.00
61908;BME280;47864;52.526;19.672;2023-02-13T07:09:00;102678.72;;;4.96;100.00
61908;BME280;47864;52.526;19.672;2023-02-13T07:11:02;102676.91;;;4.98;100.00
61908;BME280;47864;52.526;19.672;2023-02-13T07:13:04;102676.84;;;5.00;100.00
61908;BME280;47864;52.526;19.672;2023-02-13T07:15:07;102683.88;;;5.00;100.00
61908;BME280;47864;52.526;19.672;2023-02-13T07:17:08;102685.06;;;4.92;100.00
61908;BME280;47864;52.526;19.672;2023-02-13T07:19:10;102685.66;;;4.99;100.00
61908;BME280;47864;52.526;19.672;2023-02-13T07:21:11;102687.31;;;5.02;100.00
61908;BME280;47864;52.526;19.672;2023-02-13T07:23:13;102686.13;;;5.09;100.00
61908;BME280;47864;52.526;19.672;2023-02-13T07:25:14;102690.53;;;5.08;100.00
61908;BME280;47864;52.526;19.672;2023-02-13T07:27:16;102694.13;;;5.06;100.00
61908;BME280;47864;52.526;19.672;2023-02-13T07:29:18;102691.94;;;4.95;100.00
61908;BME280;47864;52.526;19.672;2023-02-13T07:31:19;102695.31;;;4.98;100.00
61908;BME280;47864;52.526;19.672;2023-02-13T07:33:21;102694.34;;;5.01;100.00
61908;BME280;47864;52.526;19.672;2023-02-13T07:35:23;102692.78;;;4.95;100.00
61908;BME280;47864;52.526;19.672;2023-02-13T07:37:27;102689.25;;;4.96;100.00
61908;BME280;47864;52.526;19.672;2023-02-13T07:39:29;102698.16;;;4.94;100.00
61908;BME280;47864;52.526;19.672;2023-02-13T07:41:30;102704.38;;;4.91;100.00
61908;BME280;47864;52.526;19.672;2023-02-13T07:43:32;102690.53;;;4.86;100.00
61908;BME280;47864;52.526;19.672;2023-02-13T07:45:33;102692.25;;;4.87;100.00
61908;BME280;47864;52.526;19.672;2023-02-13T07:47:35;102693.53;;;4.99;100.00
61908;BME280;47864;52.526;19.672;2023-02-13T07:49:36;102693.47;;;5.01;100.00
61908;BME280;47864;52.526;19.672;2023-02-13T07:51:38;102693.41;;;5.02;100.00
61908;BME280;47864;52.526;19.672;2023-02-13T07:53:40;102693.06;;;4.89;100.00
61908;BME280;47864;52.526;19.672;2023-02-13T07:55:41;102701.81;;;4.90;100.00
61908;BME280;47864;52.526;19.672;2023-02-13T07:57:43;102695.09;;;5.03;100.00
61908;BME280;47864;52.526;19.672;2023-02-13T07:59:44;102688.06;;;5.04;100.00
61908;BME280;47864;52.526;19.672;2023-02-13T08:01:46;102685.28;;;4.86;100.00
61908;BME280;47864;52.526;19.672;2023-02-13T08:03:48;102680.66;;;4.93;100.00
61908;BME280;47864;52.526;19.672;2023-02-13T08:05:50;102692.03;;;4.93;100.00
61908;BME280;47864;52.526;19.672;2023-02-13T08:07:52;102691.16;;;4.93;100.00
61908;BME280;47864;52.526;19.672;2023-02-13T08:09:54;102686.94;;;4.89;100.00
61908;BME280;47864;52.526;19.672;2023-02-13T08:11:55;102648.03;;;4.55;100.00
61908;BME280;47864;52.526;19.672;2023-02-13T08:13:57;102528.91;;;3.91;100.00
61908;BME280;47864;52.526;19.672;2023-02-13T08:15:58;102441.88;;;3.36;100.00
61908;BME280;47864;52.526;19.672;2023-02-13T08:18:00;102536.03;;;3.87;100.00
61908;BME280;47864;52.526;19.672;2023-02-13T08:20:02;102547.03;;;3.97;100.00
61908;BME280;47864;52.526;19.672;2023-02-13T08:22:04;102668.06;;;4.79;100.00
61908;BME280;47864;52.526;19.672;2023-02-13T08:24:06;102478.25;;;3.67;100.00
61908;BME280;47864;52.526;19.672;2023-02-13T08:26:08;102502.31;;;3.78;100.00
61908;BME280;47864;52.526;19.672;2023-02-13T08:28:09;102637.88;;;4.68;100.00
61908;BME280;47864;52.526;19.672;2023-02-13T08:30:11;102636.66;;;4.76;100.00
61908;BME280;47864;52.526;19.672;2023-02-13T08:32:13;102634.13;;;4.73;100.00
61908;BME280;47864;52.526;19.672;2023-02-13T08:34:15;102627.75;;;4.79;100.00
61908;BME280;47864;52.526;19.672;2023-02-13T08:36:16;102635.25;;;4.88;100.00
61908;BME280;47864;52.526;19.672;2023-02-13T08:38:18;102653.34;;;4.95;100.00
61908;BME280;47864;52.526;19.672;2023-02-13T08:40:20;102644.69;;;4.93;100.00
61908;BME280;47864;52.526;19.672;2023-02-13T08:42:25;102643.09;;;4.89;100.00
61908;BME280;47864;52.526;19.672;2023-02-13T08:44:27;102628.13;;;4.91;100.00
61908;BME280;47864;52.526;19.672;2023-02-13T08:46:28;102663.38;;;5.08;100.00
61908;BME280;47864;52.526;19.672;2023-02-13T08:48:30;102638.38;;;4.97;100.00
61908;BME280;47864;52.526;19.672;2023-02-13T08:50:31;102651.53;;;5.18;100.00
61908;BME280;47864;52.526;19.672;2023-02-13T08:52:35;102649.94;;;5.14;100.00
61908;BME280;47864;52.526;19.672;2023-02-13T08:54:37;102649.81;;;5.17;100.00
61908;BME280;47864;52.526;19.672;2023-02-13T08:56:38;102645.94;;;5.25;100.00
61908;BME280;47864;52.526;19.672;2023-02-13T08:58:39;102643.38;;;5.24;100.00
61908;BME280;47864;52.526;19.672;2023-02-13T09:00:41;102642.31;;;5.28;100.00
61908;BME280;47864;52.526;19.672;2023-02-13T09:02:42;102636.41;;;5.23;100.00
61908;BME280;47864;52.526;19.672;2023-02-13T09:04:44;102641.84;;;5.39;100.00
61908;BME280;47864;52.526;19.672;2023-02-13T09:06:46;102635.25;;;5.28;100.00
61908;BME280;47864;52.526;19.672;2023-02-13T09:08:47;102642.06;;;5.34;100.00
61908;BME280;47864;52.526;19.672;2023-02-13T09:10:58;102618.59;;;5.09;100.00
61908;BME280;47864;52.526;19.672;2023-02-13T09:13:00;102643.69;;;5.36;100.00
61908;BME280;47864;52.526;19.672;2023-02-13T09:15:01;102642.69;;;5.39;100.00
61908;BME280;47864;52.526;19.672;2023-02-13T09:17:03;102615.41;;;5.21;100.00
61908;BME280;47864;52.526;19.672;2023-02-13T09:19:04;102639.94;;;5.42;100.00
61908;BME280;47864;52.526;19.672;2023-02-13T09:21:08;102642.56;;;5.42;100.00
61908;BME280;47864;52.526;19.672;2023-02-13T09:23:11;102641.66;;;5.43;100.00
61908;BME280;47864;52.526;19.672;2023-02-13T09:25:12;102630.63;;;5.35;100.00
61908;BME280;47864;52.526;19.672;2023-02-13T09:27:14;102637.56;;;5.36;100.00
61908;BME280;47864;52.526;19.672;2023-02-13T09:29:16;102642.31;;;5.48;100.00
61908;BME280;47864;52.526;19.672;2023-02-13T09:31:20;102638.06;;;5.44;100.00
61908;BME280;47864;52.526;19.672;2023-02-13T09:33:22;102646.13;;;5.41;100.00
61908;BME280;47864;52.526;19.672;2023-02-13T09:35:23;102633.59;;;5.46;100.00
61908;BME280;47864;52.526;19.672;2023-02-13T09:37:26;102616.38;;;5.39;100.00
61908;BME280;47864;52.526;19.672;2023-02-13T09:39:27;102637.63;;;5.55;100.00
61908;BME280;47864;52.526;19.672;2023-02-13T09:41:38;102610.19;;;5.40;100.00
61908;BME280;47864;52.526;19.672;2023-02-13T09:43:59;102634.78;;;5.59;100.00
61908;BME280;47864;52.526;19.672;2023-02-13T09:46:14;102632.16;;;5.59;100.00
61908;BME280;47864;52.526;19.672;2023-02-13T09:48:25;102639.19;;;5.59;100.00
61908;BME280;47864;52.526;19.672;2023-02-13T09:50:30;102630.78;;;5.69;100.00
61908;BME280;47864;52.526;19.672;2023-02-13T09:52:35;102636.97;;;5.68;100.00
61908;BME280;47864;52.526;19.672;2023-02-13T09:54:37;102640.06;;;5.59;100.00
61908;BME280;47864;52.526;19.672;2023-02-13T09:57:02;102639.09;;;5.60;100.00
61908;BME280;47864;52.526;19.672;2023-02-13T10:01:40;102635.72;;;5.58;100.00
61908;BME280;47864;52.526;19.672;2023-02-13T10:05:00;102634.94;;;5.75;100.00
61908;BME280;47864;52.526;19.672;2023-02-13T10:06:38;102630.88;;;5.68;100.00
61908;BME280;47864;52.526;19.672;2023-02-13T10:09:03;102632.03;;;5.81;100.00
61908;BME280;47864;52.526;19.672;2023-02-13T10:11:49;102634.72;;;5.80;100.00
61908;BME280;47864;52.526;19.672;2023-02-13T10:14:22;102635.50;;;5.82;100.00
61908;BME280;47864;52.526;19.672;2023-02-13T10:16:29;102638.03;;;5.85;100.00
61908;BME280;47864;52.526;19.672;2023-02-13T10:18:57;102641.56;;;5.84;100.00
61908;BME280;47864;52.526;19.672;2023-02-13T10:21:01;102641.47;;;5.85;100.00
61908;BME280;47864;52.526;19.672;2023-02-13T10:25:16;102645.72;;;5.69;100.00
61908;BME280;47864;52.526;19.672;2023-02-13T10:27:24;102647.81;;;5.81;100.00
61908;BME280;47864;52.526;19.672;2023-02-13T10:30:38;102645.38;;;5.77;100.00
61908;BME280;47864;52.526;19.672;2023-02-13T10:32:23;102647.31;;;5.73;100.00
61908;BME280;47864;52.526;19.672;2023-02-13T10:34:27;102636.91;;;5.70;100.00
61908;BME280;47864;52.526;19.672;2023-02-13T10:36:36;102644.22;;;5.84;100.00
61908;BME280;47864;52.526;19.672;2023-02-13T10:39:40;102645.91;;;5.85;100.00
61908;BME280;47864;52.526;19.672;2023-02-13T10:41:54;102642.25;;;5.89;100.00
61908;BME280;47864;52.526;19.672;2023-02-13T10:44:15;102636.75;;;5.93;100.00
61908;BME280;47864;52.526;19.672;2023-02-13T10:46:50;102634.97;;;5.94;100.00
61908;BME280;47864;52.526;19.672;2023-02-13T10:49:33;102631.28;;;5.98;100.00
61908;BME280;47864;52.526;19.672;2023-02-13T10:51:50;102626.31;;;5.92;100.00
61908;BME280;47864;52.526;19.672;2023-02-13T10:56:13;102627.28;;;5.89;100.00
61908;BME280;47864;52.526;19.672;2023-02-13T10:58:43;102622.53;;;5.97;100.00
61908;BME280;47864;52.526;19.672;2023-02-13T11:01:13;102617.44;;;6.11;100.00
61908;BME280;47864;52.526;19.672;2023-02-13T11:03:23;102620.88;;;5.95;100.00
61908;BME280;47864;52.526;19.672;2023-02-13T11:05:36;102625.88;;;6.01;100.00
61908;BME280;47864;52.526;19.672;2023-02-13T11:07:38;102620.50;;;6.02;100.00
61908;BME280;47864;52.526;19.672;2023-02-13T11:09:41;102617.19;;;5.99;100.00
61908;BME280;47864;52.526;19.672;2023-02-13T11:11:44;102595.34;;;5.77;100.00
61908;BME280;47864;52.526;19.672;2023-02-13T11:13:45;102618.09;;;5.98;100.00